createdAt,value
2023-02-16T00:00:20.542Z,78.94
2023-02-16T00:02:49.371Z,78.92
2023-02-16T00:05:26.734Z,78.81
2023-02-16T00:07:58.377Z,79.24
2023-02-16T00:10:28.698Z,78.75
2023-02-16T00:13:16.798Z,79.47
2023-02-16T00:15:45.419Z,79.38
2023-02-16T00:18:20.521Z,79.58
2023-02-16T00:20:50.087Z,79.76
2023-02-16T00:23:18.516Z,78.95
2023-02-16T00:25:46.856Z,79.88
2023-02-16T00:28:20.909Z,79.12
2023-02-16T00:30:50.306Z,79.82
2023-02-16T00:33:21.165Z,79.69
2023-02-16T00:35:50.110Z,79.60
2023-02-16T00:38:18.606Z,79.57
2023-02-16T00:40:47.217Z,80.22
2023-02-16T00:43:27.124Z,79.67
2023-02-16T00:45:56.456Z,79.49
2023-02-16T00:48:25.864Z,79.37
2023-02-16T00:50:54.247Z,79.11
2023-02-16T00:53:22.700Z,79.15
2023-02-16T00:55:51.111Z,79.44
2023-02-16T00:58:26.645Z,79.23
2023-02-16T01:00:59.390Z,79.54
2023-02-16T01:03:30.176Z,79.19
2023-02-16T01:06:13.014Z,79.32
2023-02-16T01:09:13.750Z,78.99
2023-02-16T01:11:42.134Z,78.99
2023-02-16T01:14:14.544Z,79.68
2023-02-16T01:16:43.829Z,79.62
2023-02-16T01:19:13.227Z,79.41
2023-02-16T01:21:42.107Z,79.46
2023-02-16T01:24:10.865Z,78.63
2023-02-16T01:26:41.722Z,78.93
2023-02-16T01:29:16.461Z,79.61
2023-02-16T01:31:45.519Z,78.94
2023-02-16T01:34:14.726Z,78.46
2023-02-16T01:36:45.883Z,79.50
2023-02-16T01:39:16.956Z,79.32
2023-02-16T01:42:14.482Z,79.52
2023-02-16T01:44:49.639Z,78.72
2023-02-16T01:47:38.170Z,78.86
2023-02-16T01:50:19.801Z,79.61
2023-02-16T01:52:56.610Z,79.04
2023-02-16T01:55:31.030Z,78.65
2023-02-16T01:58:06.471Z,78.58
2023-02-16T02:01:30.597Z,78.75
2023-02-16T02:04:16.573Z,78.51
2023-02-16T02:06:45.295Z,78.57
2023-02-16T02:09:21.250Z,79.32
2023-02-16T02:11:56.988Z,79.21
2023-02-16T02:14:31.383Z,79.11
2023-02-16T02:17:05.262Z,79.02
2023-02-16T02:19:47.052Z,79.34
2023-02-16T02:23:10.637Z,79.14
2023-02-16T02:26:48.611Z,79.10
2023-02-16T02:30:02.638Z,79.16
2023-02-16T02:32:45.125Z,78.97
2023-02-16T02:35:30.781Z,79.21
2023-02-16T02:38:07.621Z,79.50
2023-02-16T02:40:55.702Z,78.65
2023-02-16T02:43:32.430Z,79.15
2023-02-16T02:46:08.930Z,78.97
2023-02-16T02:48:37.588Z,79.76
2023-02-16T02:51:30.478Z,78.91
2023-02-16T02:54:21.705Z,79.54
2023-02-16T02:57:15.061Z,78.82
2023-02-16T03:00:06.342Z,78.70
2023-02-16T03:02:38.235Z,78.60
2023-02-16T03:05:08.883Z,79.12
2023-02-16T03:07:48.732Z,78.84
2023-02-16T03:10:39.570Z,79.05
2023-02-16T03:13:14.194Z,78.90
2023-02-16T03:15:43.296Z,79.02
2023-02-16T03:18:33.701Z,78.82
2023-02-16T03:21:21.248Z,78.47
2023-02-16T03:24:09.633Z,79.17
2023-02-16T03:26:57.214Z,78.74
2023-02-16T03:29:27.887Z,78.79
2023-02-16T03:31:58.085Z,79.34
2023-02-16T03:34:30.018Z,78.76
2023-02-16T03:37:01.126Z,79.22
2023-02-16T03:39:32.249Z,78.43
2023-02-16T03:42:00.642Z,79.06
2023-02-16T03:44:29.055Z,78.64
2023-02-16T03:46:57.550Z,79.43
2023-02-16T03:49:27.361Z,79.14
2023-02-16T03:51:55.863Z,78.76
2023-02-16T03:54:24.266Z,79.28
2023-02-16T03:56:52.750Z,79.40
2023-02-16T03:59:21.353Z,79.19
2023-02-16T04:01:49.802Z,79.01
2023-02-16T04:04:18.311Z,79.20
2023-02-16T04:06:48.159Z,79.55
2023-02-16T04:09:16.549Z,78.72
2023-02-16T04:12:01.440Z,78.99
2023-02-16T04:14:29.830Z,78.74
2023-02-16T04:16:58.196Z,78.82
2023-02-16T04:19:26.896Z,78.93
2023-02-16T04:21:56.624Z,79.34
2023-02-16T04:24:25.259Z,79.20
2023-02-16T04:26:53.657Z,79.24
2023-02-16T04:29:22.119Z,79.43
2023-02-16T04:31:51.092Z,79.55
2023-02-16T04:34:19.894Z,79.81
2023-02-16T04:36:48.375Z,79.44
2023-02-16T04:39:18.170Z,78.89
2023-02-16T04:41:46.722Z,78.75
2023-02-16T04:44:15.076Z,78.93
2023-02-16T04:46:43.546Z,79.22
2023-02-16T04:49:11.960Z,79.57
2023-02-16T04:51:40.492Z,78.75
2023-02-16T04:54:09.077Z,79.51
2023-02-16T04:56:38.949Z,79.17
2023-02-16T04:59:07.324Z,79.13
2023-02-16T05:01:35.753Z,79.10
2023-02-16T05:04:04.470Z,79.57
2023-02-16T05:06:32.957Z,79.39
2023-02-16T05:09:01.353Z,79.16
2023-02-16T05:11:47.661Z,79.17
2023-02-16T05:14:39.627Z,79.66
2023-02-16T05:17:08.583Z,79.25
2023-02-16T05:19:37.486Z,79.78
2023-02-16T05:22:06.104Z,79.50
2023-02-16T05:24:36.085Z,79.18
2023-02-16T05:27:05.364Z,79.78
2023-02-16T05:29:35.556Z,79.20
2023-02-16T05:32:04.902Z,78.96
2023-02-16T05:34:33.513Z,79.56
2023-02-16T05:37:01.899Z,79.59
2023-02-16T05:39:30.521Z,79.64
2023-02-16T05:41:59.021Z,79.95
2023-02-16T05:44:27.562Z,79.78
2023-02-16T05:46:57.482Z,80.04
2023-02-16T05:49:26.014Z,80.03
2023-02-16T05:51:54.464Z,79.85
2023-02-16T05:54:22.843Z,79.26
2023-02-16T05:56:53.289Z,79.44
2023-02-16T05:59:21.833Z,79.57
2023-02-16T06:01:52.223Z,79.59
2023-02-16T06:04:23.403Z,79.53
2023-02-16T06:06:51.785Z,79.69
2023-02-16T06:09:20.187Z,79.57
2023-02-16T06:11:48.553Z,80.01
2023-02-16T06:14:19.418Z,79.59
2023-02-16T06:16:51.474Z,79.72
2023-02-16T06:19:22.031Z,79.32
2023-02-16T06:21:50.791Z,78.97
2023-02-16T06:24:19.202Z,79.49
2023-02-16T06:26:47.564Z,79.27
2023-02-16T06:29:16.177Z,79.07
2023-02-16T06:31:44.707Z,78.55
2023-02-16T06:34:13.288Z,79.26
2023-02-16T06:36:43.093Z,79.13
2023-02-16T06:39:11.472Z,78.59
2023-02-16T06:41:41.020Z,78.55
2023-02-16T06:44:13.582Z,78.18
2023-02-16T06:46:42.215Z,78.80
2023-02-16T06:49:14.179Z,78.52
2023-02-16T06:51:43.928Z,77.67
2023-02-16T06:54:12.782Z,77.86
2023-02-16T06:56:42.031Z,78.15
2023-02-16T06:59:12.471Z,77.57
2023-02-16T07:01:42.042Z,77.66
2023-02-16T07:04:11.803Z,77.10
2023-02-16T07:06:40.443Z,76.65
2023-02-16T07:09:12.706Z,76.85
2023-02-16T07:11:41.522Z,76.26
2023-02-16T07:14:09.884Z,76.15
2023-02-16T07:16:38.528Z,75.39
2023-02-16T07:19:07.067Z,74.86
2023-02-16T07:21:35.709Z,75.34
2023-02-16T07:24:04.490Z,74.29
2023-02-16T07:26:34.490Z,74.20
2023-02-16T07:29:02.823Z,73.04
2023-02-16T07:31:31.231Z,73.51
2023-02-16T07:33:59.839Z,72.83
2023-02-16T07:36:28.566Z,72.40
2023-02-16T07:38:57.286Z,71.98
2023-02-16T07:41:25.728Z,71.72
2023-02-16T07:43:55.568Z,71.90
2023-02-16T07:46:24.329Z,71.61
2023-02-16T07:48:52.728Z,71.04
2023-02-16T07:51:25.425Z,70.66
2023-02-16T07:53:54.375Z,70.57
2023-02-16T07:56:25.531Z,70.23
2023-02-16T07:58:58.765Z,70.48
2023-02-16T08:01:29.988Z,70.77
2023-02-16T08:03:59.515Z,69.90
2023-02-16T08:06:27.968Z,69.01
2023-02-16T08:08:56.629Z,69.18
2023-02-16T08:11:27.589Z,68.14
2023-02-16T08:13:57.427Z,67.35
2023-02-16T08:16:28.760Z,67.05
2023-02-16T08:18:59.013Z,67.42
2023-02-16T08:21:31.829Z,67.24
2023-02-16T08:24:03.081Z,66.84
2023-02-16T08:26:39.916Z,65.80
2023-02-16T08:29:12.730Z,65.91
2023-02-16T08:31:41.916Z,65.02
2023-02-16T08:34:11.571Z,64.71
2023-02-16T08:36:41.404Z,64.15
2023-02-16T08:39:15.422Z,63.71
2023-02-16T08:41:45.406Z,63.14
2023-02-16T08:44:17.825Z,63.23
2023-02-16T08:46:48.150Z,62.00
2023-02-16T08:49:18.851Z,61.40
2023-02-16T08:51:54.895Z,60.70
2023-02-16T08:54:27.163Z,59.67
2023-02-16T08:56:56.190Z,59.66
2023-02-16T08:59:28.832Z,59.61
2023-02-16T09:01:59.266Z,58.56
2023-02-16T09:04:29.298Z,58.12
2023-02-16T09:06:59.657Z,58.05
2023-02-16T09:09:28.968Z,58.63
2023-02-16T09:11:58.162Z,57.43
2023-02-16T09:14:28.038Z,53.61
2023-02-16T09:16:56.584Z,50.39
2023-02-16T09:19:25.633Z,47.87
2023-02-16T09:21:56.716Z,45.16
2023-02-16T09:24:25.348Z,43.17
2023-02-16T09:26:53.906Z,41.38
2023-02-16T09:29:23.124Z,39.68
2023-02-16T09:31:52.842Z,39.26
2023-02-16T09:34:23.285Z,37.36
2023-02-16T09:36:52.903Z,35.47
2023-02-16T09:39:21.661Z,33.55
2023-02-16T09:42:13.161Z,33.13
2023-02-16T09:44:54.946Z,32.52
2023-02-16T09:47:29.503Z,32.77
2023-02-16T09:49:59.862Z,32.90
2023-02-16T09:52:37.132Z,32.24
2023-02-16T09:55:12.359Z,31.45
2023-02-16T09:57:57.450Z,30.12
2023-02-16T10:00:44.718Z,29.34
2023-02-16T10:03:34.516Z,28.36
2023-02-16T10:06:19.361Z,26.29
2023-02-16T10:08:51.685Z,25.76
2023-02-16T10:11:41.953Z,25.63
2023-02-16T10:14:23.327Z,26.34
2023-02-16T10:16:58.827Z,25.95
2023-02-16T10:19:40.532Z,25.71
2023-02-16T10:22:17.340Z,25.31
2023-02-16T10:24:56.868Z,25.72
2023-02-16T10:27:30.229Z,25.56
2023-02-16T10:29:58.781Z,24.90
2023-02-16T10:32:30.794Z,24.67
2023-02-16T10:35:13.403Z,24.07
2023-02-16T10:37:59.307Z,23.84
2023-02-16T10:40:37.628Z,22.95
2023-02-16T10:43:15.755Z,22.51
2023-02-16T10:45:52.534Z,21.07
2023-02-16T10:48:22.420Z,20.98
2023-02-16T10:51:00.539Z,21.10
2023-02-16T10:53:40.706Z,20.50
2023-02-16T10:56:49.656Z,20.18
2023-02-16T10:59:22.241Z,20.36
2023-02-16T11:01:54.149Z,20.29
2023-02-16T11:04:39.828Z,20.08
2023-02-16T11:07:12.580Z,19.90
2023-02-16T11:09:43.830Z,20.05
2023-02-16T11:12:29.188Z,20.67
2023-02-16T11:15:04.048Z,21.45
2023-02-16T11:17:34.598Z,22.08
2023-02-16T11:20:07.224Z,22.39
2023-02-16T11:22:41.571Z,22.66
2023-02-16T11:25:25.809Z,22.42
2023-02-16T11:27:59.108Z,22.03
2023-02-16T11:30:36.088Z,21.82
2023-02-16T11:33:19.485Z,21.27
2023-02-16T11:35:48.806Z,21.05
2023-02-16T11:38:34.634Z,20.47
2023-02-16T11:41:07.370Z,20.77
2023-02-16T11:43:40.047Z,20.27
2023-02-16T11:46:16.653Z,20.26
2023-02-16T11:48:46.323Z,20.79
2023-02-16T11:51:16.653Z,21.19
2023-02-16T11:53:47.474Z,20.52
2023-02-16T11:56:27.547Z,20.78
2023-02-16T11:59:19.244Z,21.16
2023-02-16T12:02:43.197Z,21.42
2023-02-16T12:05:26.443Z,21.34
2023-02-16T12:08:25.298Z,22.02
2023-02-16T12:11:14.868Z,21.81
2023-02-16T12:13:52.315Z,21.88
2023-02-16T12:16:32.819Z,22.78
2023-02-16T12:19:19.667Z,22.79
2023-02-16T12:21:52.150Z,23.26
2023-02-16T12:24:38.345Z,23.87
2023-02-16T12:27:17.958Z,23.95
2023-02-16T12:30:00.036Z,24.24
2023-02-16T12:33:00.430Z,25.63
2023-02-16T12:36:03.711Z,27.42
2023-02-16T12:38:48.071Z,29.20
2023-02-16T12:41:29.647Z,31.02
2023-02-16T12:44:06.582Z,33.15
2023-02-16T12:46:43.223Z,35.21
2023-02-16T12:49:21.184Z,36.37
2023-02-16T12:51:54.741Z,37.66
2023-02-16T12:54:29.553Z,38.85
2023-02-16T12:57:06.761Z,40.09
2023-02-16T12:59:45.625Z,40.74
2023-02-16T13:02:21.602Z,41.83
2023-02-16T13:04:57.739Z,42.60
2023-02-16T13:07:36.313Z,43.58
2023-02-16T13:10:19.236Z,44.56
2023-02-16T13:12:56.139Z,45.02
2023-02-16T13:15:35.280Z,46.04
2023-02-16T13:18:12.479Z,47.22
2023-02-16T13:20:46.050Z,47.93
2023-02-16T13:23:48.231Z,48.68
2023-02-16T13:26:40.865Z,48.48
2023-02-16T13:29:47.900Z,49.77
2023-02-16T13:32:50.182Z,50.72
2023-02-16T13:35:51.906Z,50.99
2023-02-16T13:38:58.567Z,52.05
2023-02-16T13:41:56.600Z,52.28
2023-02-16T13:44:27.121Z,52.55
2023-02-16T13:46:57.086Z,52.98
2023-02-16T13:49:38.685Z,53.75
2023-02-16T13:52:08.849Z,53.70
2023-02-16T13:54:40.116Z,54.16
2023-02-16T13:57:13.893Z,54.29
2023-02-16T14:00:02.589Z,55.18
2023-02-16T14:02:58.689Z,55.39
2023-02-16T14:05:36.677Z,55.61
2023-02-16T14:08:24.667Z,56.57
2023-02-16T14:11:10.035Z,56.58
2023-02-16T14:13:52.004Z,57.22
2023-02-16T14:16:34.924Z,57.63
2023-02-16T14:19:20.578Z,58.29
2023-02-16T14:21:51.739Z,59.17
2023-02-16T14:24:33.881Z,59.17
2023-02-16T14:27:06.083Z,59.72
2023-02-16T14:29:39.182Z,59.57
2023-02-16T14:32:23.573Z,60.61
2023-02-16T14:34:58.678Z,60.81
2023-02-16T14:37:39.271Z,60.70
2023-02-16T14:40:21.527Z,60.45
2023-02-16T14:43:02.784Z,60.32
2023-02-16T14:46:43.430Z,61.54
2023-02-16T14:50:09.290Z,61.48
2023-02-16T14:53:14.490Z,61.91
2023-02-16T14:56:30.905Z,62.15
2023-02-16T14:59:06.277Z,62.34
2023-02-16T15:01:42.011Z,62.33
2023-02-16T15:04:12.649Z,62.93
2023-02-16T15:06:44.541Z,62.80
2023-02-16T15:09:23.965Z,63.41
2023-02-16T15:12:14.000Z,63.20
2023-02-16T15:14:47.992Z,64.12
2023-02-16T15:17:29.241Z,63.77
2023-02-16T15:20:00.178Z,64.40
2023-02-16T15:22:28.814Z,64.75
2023-02-16T15:25:05.735Z,65.05
2023-02-16T15:27:35.035Z,65.22
2023-02-16T15:30:27.372Z,65.36
2023-02-16T15:32:59.140Z,65.99
2023-02-16T15:35:42.746Z,65.73
2023-02-16T15:38:23.695Z,66.16
2023-02-16T15:40:56.469Z,66.48
2023-02-16T15:43:32.827Z,66.66
2023-02-16T15:46:03.480Z,67.57
2023-02-16T15:48:34.568Z,67.11
2023-02-16T15:51:12.577Z,67.64
2023-02-16T15:53:50.230Z,67.97
2023-02-16T15:56:39.557Z,68.00
2023-02-16T15:59:28.470Z,68.41
2023-02-16T16:02:03.966Z,68.33
2023-02-16T16:04:39.008Z,68.45
2023-02-16T16:07:09.291Z,68.87
2023-02-16T16:09:39.751Z,69.17
2023-02-16T16:12:14.486Z,69.35
2023-02-16T16:14:51.387Z,69.46
2023-02-16T16:17:28.099Z,69.60
2023-02-16T16:19:57.607Z,69.52
2023-02-16T16:22:36.310Z,69.91
2023-02-16T16:25:30.649Z,69.72
2023-02-16T16:28:01.204Z,69.96
2023-02-16T16:30:33.539Z,70.17
2023-02-16T16:33:05.315Z,70.04
2023-02-16T16:35:40.577Z,70.42
2023-02-16T16:38:23.595Z,70.65
2023-02-16T16:40:54.411Z,70.71
2023-02-16T16:43:29.211Z,70.51
2023-02-16T16:46:12.756Z,71.03
2023-02-16T16:48:47.497Z,71.00
2023-02-16T16:51:18.926Z,70.83
2023-02-16T16:53:54.739Z,70.71
2023-02-16T16:56:24.152Z,70.65
2023-02-16T16:58:57.390Z,70.73
2023-02-16T17:01:28.400Z,70.55
2023-02-16T17:03:56.844Z,71.02
2023-02-16T17:06:26.297Z,70.68
2023-02-16T17:08:55.660Z,70.61
2023-02-16T17:11:28.567Z,71.02
2023-02-16T17:14:06.270Z,70.50
2023-02-16T17:16:39.690Z,70.56
2023-02-16T17:19:08.100Z,70.76
2023-02-16T17:21:36.510Z,70.81
2023-02-16T17:24:07.224Z,70.55
2023-02-16T17:26:35.939Z,70.79
2023-02-16T17:29:07.118Z,70.92
2023-02-16T17:31:36.178Z,70.80
2023-02-16T17:34:04.695Z,71.19
2023-02-16T17:36:33.613Z,70.51
2023-02-16T17:39:02.091Z,70.79
2023-02-16T17:41:31.209Z,70.62
2023-02-16T17:43:59.584Z,70.48
2023-02-16T17:46:29.453Z,70.66
2023-02-16T17:48:57.946Z,70.66
2023-02-16T17:51:29.700Z,70.97
2023-02-16T17:53:58.027Z,70.84
2023-02-16T17:56:26.666Z,70.84
2023-02-16T17:58:55.192Z,71.03
2023-02-16T18:01:23.807Z,70.68
2023-02-16T18:03:53.861Z,70.68
2023-02-16T18:06:28.199Z,70.60
2023-02-16T18:08:57.866Z,70.63
2023-02-16T18:11:26.353Z,70.82
2023-02-16T18:13:55.212Z,70.81
2023-02-16T18:16:28.477Z,70.60
2023-02-16T18:18:58.394Z,70.67
2023-02-16T18:21:27.008Z,70.85
2023-02-16T18:23:55.432Z,70.77
2023-02-16T18:26:23.920Z,70.64
2023-02-16T18:28:52.344Z,70.77
2023-02-16T18:31:20.999Z,71.15
2023-02-16T18:33:49.416Z,70.76
2023-02-16T18:36:19.530Z,70.73
2023-02-16T18:38:48.024Z,70.68
2023-02-16T18:41:16.529Z,71.30
2023-02-16T18:43:45.022Z,71.37
2023-02-16T18:46:13.474Z,71.09
2023-02-16T18:48:41.899Z,71.54
2023-02-16T18:51:12.399Z,71.24
2023-02-16T18:53:42.169Z,71.47
2023-02-16T18:56:12.819Z,71.19
2023-02-16T18:58:41.238Z,71.52
2023-02-16T19:01:16.585Z,71.80
2023-02-16T19:03:45.285Z,71.77
2023-02-16T19:06:13.745Z,71.93
2023-02-16T19:08:43.564Z,71.93
2023-02-16T19:11:12.036Z,71.85
2023-02-16T19:13:40.474Z,72.08
2023-02-16T19:16:09.272Z,71.91
2023-02-16T19:18:37.748Z,72.19
2023-02-16T19:21:08.163Z,72.25
2023-02-16T19:23:37.320Z,72.60
2023-02-16T19:26:08.838Z,72.42
2023-02-16T19:28:37.683Z,72.24
2023-02-16T19:31:09.040Z,72.09
2023-02-16T19:33:37.601Z,72.23
2023-02-16T19:36:09.813Z,72.71
2023-02-16T19:38:40.021Z,72.99
2023-02-16T19:41:16.012Z,72.36
2023-02-16T19:43:44.803Z,72.87
2023-02-16T19:46:14.765Z,72.63
2023-02-16T19:48:43.427Z,73.21
2023-02-16T19:51:12.157Z,72.74
2023-02-16T19:53:42.595Z,72.92
2023-02-16T19:56:16.595Z,72.74
2023-02-16T19:58:46.136Z,73.31
2023-02-16T20:01:17.029Z,72.95
2023-02-16T20:03:46.176Z,73.60
2023-02-16T20:06:17.750Z,73.78
2023-02-16T20:08:47.290Z,73.72
2023-02-16T20:11:19.416Z,73.95
2023-02-16T20:13:48.158Z,74.19
2023-02-16T20:16:18.897Z,73.76
2023-02-16T20:18:47.552Z,74.03
2023-02-16T20:21:18.438Z,74.49
2023-02-16T20:23:47.282Z,74.59
2023-02-16T20:26:21.934Z,74.82
2023-02-16T20:28:52.120Z,74.76
2023-02-16T20:31:24.711Z,74.58
2023-02-16T20:33:54.742Z,74.29
2023-02-16T20:36:24.104Z,74.08
2023-02-16T20:38:52.613Z,74.57
2023-02-16T20:41:23.059Z,74.90
2023-02-16T20:43:51.860Z,74.50
2023-02-16T20:46:23.621Z,75.34
2023-02-16T20:48:52.724Z,75.22
2023-02-16T20:51:21.991Z,75.51
2023-02-16T20:53:50.893Z,75.16
2023-02-16T20:56:24.818Z,75.45
2023-02-16T20:58:55.619Z,75.67
2023-02-16T21:01:27.200Z,75.14
2023-02-16T21:03:58.025Z,75.68
2023-02-16T21:06:27.363Z,75.28
2023-02-16T21:08:55.996Z,75.91
2023-02-16T21:11:26.677Z,75.34
2023-02-16T21:13:55.307Z,75.84
2023-02-16T21:16:23.954Z,76.39
2023-02-16T21:18:52.839Z,75.60
2023-02-16T21:21:21.598Z,75.97
2023-02-16T21:23:52.838Z,75.81
2023-02-16T21:26:23.771Z,75.68
2023-02-16T21:28:54.448Z,75.81
2023-02-16T21:31:26.164Z,76.22
2023-02-16T21:33:55.136Z,76.22
2023-02-16T21:36:26.509Z,76.52
2023-02-16T21:38:55.218Z,76.24
2023-02-16T21:41:24.844Z,76.39
2023-02-16T21:44:00.830Z,76.16
2023-02-16T21:46:31.826Z,76.43
2023-02-16T21:49:00.114Z,76.79
2023-02-16T21:51:31.334Z,76.21
2023-02-16T21:54:00.496Z,76.71
2023-02-16T21:56:35.025Z,76.53
2023-02-16T21:59:06.236Z,76.69
2023-02-16T22:01:39.485Z,76.55
2023-02-16T22:04:09.158Z,76.30
2023-02-16T22:06:42.159Z,76.72
2023-02-16T22:09:14.216Z,76.83
2023-02-16T22:11:42.985Z,76.15
2023-02-16T22:14:13.564Z,76.94
2023-02-16T22:16:42.144Z,76.65
2023-02-16T22:19:15.573Z,76.41
2023-02-16T22:21:45.956Z,75.95
2023-02-16T22:24:16.367Z,76.43
2023-02-16T22:26:45.707Z,76.41
2023-02-16T22:29:16.005Z,76.15
2023-02-16T22:31:46.084Z,76.83
2023-02-16T22:34:18.270Z,76.38
2023-02-16T22:36:47.443Z,76.75
2023-02-16T22:39:18.155Z,76.84
2023-02-16T22:41:46.684Z,76.62
2023-02-16T22:44:16.534Z,76.77
2023-02-16T22:46:45.148Z,76.18
2023-02-16T22:49:13.773Z,76.27
2023-02-16T22:51:42.152Z,77.07
2023-02-16T22:54:14.457Z,76.64
2023-02-16T22:56:43.330Z,76.66
2023-02-16T22:59:12.923Z,76.02
2023-02-16T23:01:42.856Z,76.64
2023-02-16T23:04:16.433Z,76.66
2023-02-16T23:06:46.288Z,75.97
2023-02-16T23:09:18.636Z,75.96
2023-02-16T23:11:47.310Z,75.81
2023-02-16T23:14:17.393Z,76.08
2023-02-16T23:16:51.590Z,76.17
2023-02-16T23:19:23.147Z,75.48
2023-02-16T23:21:51.842Z,75.91
2023-02-16T23:24:23.188Z,75.76
2023-02-16T23:26:52.386Z,75.65
2023-02-16T23:29:21.077Z,75.60
2023-02-16T23:31:51.610Z,75.56
2023-02-16T23:34:21.383Z,75.21
2023-02-16T23:36:50.307Z,75.49
2023-02-16T23:39:19.994Z,75.51
2023-02-16T23:41:48.325Z,75.70
2023-02-16T23:44:17.017Z,75.12
2023-02-16T23:46:45.646Z,75.15
2023-02-16T23:49:15.545Z,75.14
2023-02-16T23:51:43.919Z,75.61
2023-02-16T23:54:12.505Z,75.34
2023-02-16T23:56:42.296Z,75.44
2023-02-16T23:59:10.795Z,75.01
